createdAt,value
2018-04-24T00:00:29.231Z,16.04
2018-04-24T00:03:00.007Z,16.04
2018-04-24T00:05:30.788Z,15.97
2018-04-24T00:08:01.611Z,15.97
2018-04-24T00:10:32.383Z,15.94
2018-04-24T00:13:03.170Z,16.00
2018-04-24T00:15:33.983Z,16.04
2018-04-24T00:18:07.567Z,16.08
2018-04-24T00:20:38.449Z,16.03
2018-04-24T00:23:12.659Z,16.00
2018-04-24T00:25:43.481Z,15.97
2018-04-24T00:28:14.255Z,15.98
2018-04-24T00:30:45.052Z,15.98
2018-04-24T00:33:15.832Z,15.95
2018-04-24T00:35:46.613Z,16.00
2018-04-24T00:38:17.399Z,16.03
2018-04-24T00:40:48.200Z,16.00
2018-04-24T00:43:19.073Z,16.00
2018-04-24T00:45:49.881Z,16.04
2018-04-24T00:48:20.657Z,16.05
2018-04-24T00:50:51.456Z,15.99
2018-04-24T00:53:34.606Z,15.94
2018-04-24T00:56:05.358Z,15.96
2018-04-24T00:58:36.163Z,15.94
2018-04-24T01:01:07.056Z,15.94
2018-04-24T01:03:37.855Z,15.90
2018-04-24T01:06:08.664Z,15.89
2018-04-24T01:08:39.463Z,15.88
2018-04-24T01:11:10.260Z,15.83
2018-04-24T01:13:41.026Z,15.89
2018-04-24T01:16:11.831Z,15.86
2018-04-24T01:18:42.600Z,15.85
2018-04-24T01:21:13.481Z,15.81
2018-04-24T01:23:44.279Z,15.72
2018-04-24T01:26:15.056Z,15.64
2018-04-24T01:28:45.839Z,15.57
2018-04-24T01:31:16.616Z,15.51
2018-04-24T01:33:47.405Z,15.54
2018-04-24T01:36:18.216Z,15.55
2018-04-24T01:38:49.035Z,15.55
2018-04-24T01:41:23.672Z,15.47
2018-04-24T01:43:54.468Z,15.39
2018-04-24T01:46:25.263Z,15.34
2018-04-24T01:48:56.075Z,15.23
2018-04-24T01:51:26.895Z,15.20
2018-04-24T01:53:57.717Z,15.16
2018-04-24T01:56:28.490Z,15.08
2018-04-24T01:58:59.307Z,15.03
2018-04-24T02:01:30.081Z,14.93
2018-04-24T02:04:00.916Z,14.89
2018-04-24T02:06:31.693Z,14.88
2018-04-24T02:09:02.515Z,14.91
2018-04-24T02:11:33.288Z,15.00
2018-04-24T02:14:07.152Z,14.99
2018-04-24T02:16:37.929Z,15.06
2018-04-24T02:19:08.713Z,15.05
2018-04-24T02:21:39.512Z,14.98
2018-04-24T02:24:10.297Z,15.00
2018-04-24T02:26:41.083Z,15.09
2018-04-24T02:29:11.879Z,15.12
2018-04-24T02:31:42.677Z,15.09
2018-04-24T02:34:13.453Z,15.13
2018-04-24T02:36:44.227Z,15.13
2018-04-24T02:39:15.003Z,15.19
2018-04-24T02:41:45.771Z,15.19
2018-04-24T02:44:16.548Z,15.16
2018-04-24T02:46:47.356Z,15.18
2018-04-24T02:49:18.140Z,15.19
2018-04-24T02:51:48.995Z,15.17
2018-04-24T02:54:19.783Z,15.14
2018-04-24T02:56:50.580Z,15.06
2018-04-24T02:59:21.360Z,14.93
2018-04-24T03:01:52.131Z,14.82
2018-04-24T03:04:22.911Z,14.63
2018-04-24T03:06:53.714Z,14.54
2018-04-24T03:09:24.484Z,14.42
2018-04-24T03:11:55.335Z,14.36
2018-04-24T03:14:26.095Z,14.27
2018-04-24T03:16:56.908Z,14.31
2018-04-24T03:19:27.719Z,14.12
2018-04-24T03:21:58.528Z,13.99
2018-04-24T03:24:29.292Z,13.87
2018-04-24T03:27:00.064Z,13.84
2018-04-24T03:29:30.832Z,13.68
2018-04-24T03:32:01.623Z,13.57
2018-04-24T03:34:32.376Z,13.58
2018-04-24T03:37:03.169Z,13.34
2018-04-24T03:39:33.947Z,13.41
2018-04-24T03:42:04.752Z,13.34
2018-04-24T03:44:35.552Z,13.19
2018-04-24T03:47:06.316Z,13.14
2018-04-24T03:49:37.107Z,13.09
2018-04-24T03:52:07.887Z,13.01
2018-04-24T03:54:38.651Z,12.98
2018-04-24T03:57:09.447Z,12.94
2018-04-24T03:59:40.231Z,12.89
2018-04-24T04:02:11.015Z,12.91
2018-04-24T04:04:41.780Z,12.95
2018-04-24T04:07:12.589Z,12.81
2018-04-24T04:09:43.360Z,12.77
2018-04-24T04:12:14.143Z,12.76
2018-04-24T04:14:44.908Z,12.74
2018-04-24T04:17:27.959Z,12.69
2018-04-24T04:20:11.176Z,12.62
2018-04-24T04:22:54.459Z,12.57
2018-04-24T04:25:25.240Z,12.55
2018-04-24T04:27:56.023Z,12.63
2018-04-24T04:30:27.604Z,12.70
2018-04-24T04:32:58.659Z,12.86
2018-04-24T04:35:29.392Z,12.86
2018-04-24T04:38:00.180Z,12.93
2018-04-24T04:40:30.979Z,13.08
2018-04-24T04:43:01.776Z,13.18
2018-04-24T04:45:32.542Z,13.35
2018-04-24T04:48:03.342Z,13.51
2018-04-24T04:50:34.103Z,13.58
2018-04-24T04:53:04.916Z,13.65
2018-04-24T04:55:35.701Z,13.76
2018-04-24T04:58:06.504Z,13.80
2018-04-24T05:00:37.271Z,13.84
2018-04-24T05:03:08.100Z,13.92
2018-04-24T05:05:38.865Z,14.04
2018-04-24T05:08:09.737Z,14.09
2018-04-24T05:10:40.521Z,14.19
2018-04-24T05:13:11.368Z,14.28
2018-04-24T05:15:42.159Z,14.36
2018-04-24T05:18:12.961Z,14.47
2018-04-24T05:20:43.763Z,14.85
2018-04-24T05:23:14.809Z,15.93
2018-04-24T05:25:45.664Z,16.80
2018-04-24T05:28:16.463Z,17.66
2018-04-24T05:30:47.309Z,18.54
2018-04-24T05:33:18.103Z,18.68
2018-04-24T05:35:48.966Z,19.20
2018-04-24T05:38:19.863Z,19.39
2018-04-24T05:40:50.659Z,20.03
2018-04-24T05:43:21.451Z,20.33
2018-04-24T05:45:52.206Z,20.19
2018-04-24T05:48:23.151Z,21.40
2018-04-24T05:50:53.913Z,21.89
2018-04-24T05:53:24.716Z,22.14
2018-04-24T05:55:55.506Z,21.10
2018-04-24T05:58:26.353Z,21.49
2018-04-24T06:00:57.133Z,22.08
2018-04-24T06:03:27.931Z,22.13
2018-04-24T06:05:58.706Z,22.52
2018-04-24T06:08:29.600Z,23.31
2018-04-24T06:11:00.372Z,23.40
2018-04-24T06:13:31.139Z,23.26
2018-04-24T06:16:01.899Z,23.43
2018-04-24T06:18:32.714Z,23.53
2018-04-24T06:21:03.570Z,22.66
2018-04-24T06:23:34.410Z,23.80
2018-04-24T06:26:05.164Z,23.73
2018-04-24T06:28:36.325Z,23.04
2018-04-24T06:31:07.044Z,23.35
2018-04-24T06:33:37.903Z,23.39
2018-04-24T06:36:08.668Z,22.67
2018-04-24T06:38:39.542Z,22.46
2018-04-24T06:41:10.256Z,22.46
2018-04-24T06:43:41.212Z,22.63
2018-04-24T06:46:12.007Z,22.59
2018-04-24T06:48:42.816Z,22.76
2018-04-24T06:51:14.710Z,23.08
2018-04-24T06:53:45.727Z,23.06
2018-04-24T06:56:16.531Z,23.80
2018-04-24T06:58:47.336Z,23.24
2018-04-24T07:01:18.139Z,23.16
2018-04-24T07:03:49.196Z,23.60
2018-04-24T07:06:19.977Z,23.11
2018-04-24T07:08:50.891Z,24.32
2018-04-24T07:11:21.722Z,25.42
2018-04-24T07:13:52.526Z,25.24
2018-04-24T07:16:23.343Z,23.67
2018-04-24T07:18:54.122Z,22.92
2018-04-24T07:21:24.896Z,22.72
2018-04-24T07:23:55.696Z,23.48
2018-04-24T07:26:26.460Z,23.29
2018-04-24T07:28:57.497Z,23.51
2018-04-24T07:31:28.293Z,23.57
2018-04-24T07:33:59.093Z,22.62
2018-04-24T07:36:29.919Z,22.60
2018-04-24T07:39:00.740Z,24.01
2018-04-24T07:41:31.552Z,23.92
2018-04-24T07:44:02.542Z,24.72
2018-04-24T07:46:33.380Z,23.29
2018-04-24T07:49:04.135Z,23.36
2018-04-24T07:51:34.919Z,22.06
2018-04-24T07:54:05.719Z,22.25
2018-04-24T07:56:36.485Z,21.15
2018-04-24T07:59:07.325Z,21.56
2018-04-24T08:01:38.113Z,21.80
2018-04-24T08:04:08.923Z,21.82
2018-04-24T08:06:39.704Z,21.83
2018-04-24T08:09:10.535Z,22.04
2018-04-24T08:11:41.337Z,23.08
2018-04-24T08:14:12.132Z,22.41
2018-04-24T08:16:42.911Z,22.72
2018-04-24T08:19:13.740Z,22.63
2018-04-24T08:21:44.533Z,21.32
2018-04-24T08:24:15.357Z,22.03
2018-04-24T08:26:46.137Z,21.64
2018-04-24T08:29:16.978Z,22.76
2018-04-24T08:31:47.751Z,22.13
2018-04-24T08:34:18.595Z,22.29
2018-04-24T08:36:49.399Z,21.91
2018-04-24T08:39:20.301Z,22.46
2018-04-24T08:41:51.167Z,22.60
2018-04-24T08:44:21.995Z,22.09
2018-04-24T08:46:52.784Z,22.26
2018-04-24T08:49:23.583Z,21.74
2018-04-24T08:51:54.348Z,21.86
2018-04-24T08:54:25.183Z,22.52
2018-04-24T08:56:56.070Z,22.54
2018-04-24T08:59:26.836Z,23.54
2018-04-24T09:01:57.709Z,22.80
2018-04-24T09:04:28.476Z,23.47
2018-04-24T09:06:59.255Z,23.35
2018-04-24T09:09:30.156Z,24.02
2018-04-24T09:12:00.927Z,24.43
2018-04-24T09:14:31.723Z,24.16
2018-04-24T09:17:02.508Z,24.00
2018-04-24T09:19:33.303Z,23.13
2018-04-24T09:22:04.146Z,22.90
2018-04-24T09:24:34.955Z,22.36
2018-04-24T09:27:05.852Z,21.60
2018-04-24T09:29:36.688Z,21.24
2018-04-24T09:32:07.507Z,22.04
2018-04-24T09:34:38.315Z,22.80
2018-04-24T09:37:09.173Z,22.70
2018-04-24T09:39:39.975Z,22.53
2018-04-24T09:42:10.851Z,22.74
2018-04-24T09:44:41.719Z,21.91
2018-04-24T09:47:12.540Z,22.13
2018-04-24T09:49:43.321Z,22.46
2018-04-24T09:52:14.089Z,23.11
2018-04-24T09:54:44.888Z,23.18
2018-04-24T09:57:15.714Z,23.87
2018-04-24T09:59:46.502Z,24.07
2018-04-24T10:02:17.333Z,24.09
2018-04-24T10:04:48.080Z,25.13
2018-04-24T10:07:18.879Z,25.14
2018-04-24T10:09:49.703Z,25.48
2018-04-24T10:12:20.552Z,26.02
2018-04-24T10:14:51.351Z,25.52
2018-04-24T10:17:22.141Z,26.35
2018-04-24T10:19:52.930Z,26.01
2018-04-24T10:22:23.831Z,25.98
2018-04-24T10:24:54.672Z,26.01
2018-04-24T10:27:25.477Z,25.35
2018-04-24T10:29:56.260Z,26.26
2018-04-24T10:32:27.056Z,26.15
2018-04-24T10:34:57.824Z,26.25
2018-04-24T10:37:28.701Z,25.02
2018-04-24T10:39:59.404Z,25.07
2018-04-24T10:42:30.211Z,25.41
2018-04-24T10:45:00.975Z,26.43
2018-04-24T10:47:31.753Z,26.60
2018-04-24T10:50:02.604Z,27.13
2018-04-24T10:52:33.440Z,26.64
2018-04-24T10:55:04.296Z,26.94
2018-04-24T10:57:35.264Z,27.17
2018-04-24T11:00:06.080Z,26.78
2018-04-24T11:02:36.920Z,27.02
2018-04-24T11:05:07.700Z,26.61
2018-04-24T11:07:38.531Z,25.85
2018-04-24T11:10:09.320Z,25.84
2018-04-24T11:12:40.206Z,25.87
2018-04-24T11:15:10.978Z,25.90
2018-04-24T11:17:41.824Z,25.74
2018-04-24T11:20:12.691Z,25.81
2018-04-24T11:22:43.490Z,26.00
2018-04-24T11:25:14.276Z,26.67
2018-04-24T11:27:45.063Z,26.70
2018-04-24T11:30:15.866Z,27.31
2018-04-24T11:32:46.679Z,27.19
2018-04-24T11:35:17.459Z,26.91
2018-04-24T11:37:48.270Z,26.89
2018-04-24T11:40:19.043Z,26.50
2018-04-24T11:42:49.813Z,26.08
2018-04-24T11:45:20.620Z,27.04
2018-04-24T11:47:51.401Z,26.93
2018-04-24T11:50:22.223Z,26.48
2018-04-24T11:52:53.022Z,25.44
2018-04-24T11:55:23.807Z,25.86
2018-04-24T11:57:54.707Z,25.26
2018-04-24T12:00:25.525Z,25.67
2018-04-24T12:02:56.401Z,24.62
2018-04-24T12:05:27.107Z,25.43
2018-04-24T12:07:57.896Z,25.86
2018-04-24T12:10:28.791Z,24.72
2018-04-24T12:12:59.634Z,25.22
2018-04-24T12:15:30.450Z,25.13
2018-04-24T12:18:01.246Z,24.99
2018-04-24T12:20:35.315Z,24.70
2018-04-24T12:23:06.114Z,24.73
2018-04-24T12:25:36.919Z,25.49
2018-04-24T12:28:07.695Z,25.56
2018-04-24T12:30:38.603Z,25.44
2018-04-24T12:33:09.523Z,24.92
2018-04-24T12:35:40.320Z,24.87
2018-04-24T12:38:11.107Z,25.28
2018-04-24T12:40:41.940Z,25.37
2018-04-24T12:43:12.740Z,25.03
2018-04-24T12:45:43.568Z,24.67
2018-04-24T12:48:14.356Z,25.24
2018-04-24T12:50:45.196Z,26.17
2018-04-24T12:53:15.982Z,24.98
2018-04-24T12:55:46.803Z,25.12
2018-04-24T12:58:17.567Z,25.29
2018-04-24T13:00:48.376Z,24.57
2018-04-24T13:03:19.148Z,25.00
2018-04-24T13:05:49.923Z,24.43
2018-04-24T13:08:20.696Z,24.93
2018-04-24T13:10:51.592Z,25.64
2018-04-24T13:13:22.386Z,26.87
2018-04-24T13:15:53.275Z,28.92
2018-04-24T13:18:24.103Z,27.90
2018-04-24T13:20:54.840Z,27.55
2018-04-24T13:23:25.688Z,27.48
2018-04-24T13:25:56.489Z,27.03
2018-04-24T13:28:27.275Z,25.67
2018-04-24T13:30:58.067Z,25.70
2018-04-24T13:33:28.893Z,25.70
2018-04-24T13:35:59.819Z,26.97
2018-04-24T13:38:30.667Z,26.71
2018-04-24T13:41:01.510Z,26.39
2018-04-24T13:43:32.289Z,26.36
2018-04-24T13:46:03.165Z,25.93
2018-04-24T13:48:34.034Z,26.37
2018-04-24T13:51:04.843Z,26.32
2018-04-24T13:53:35.630Z,26.49
2018-04-24T13:56:06.451Z,25.99
2018-04-24T13:58:37.249Z,26.33
2018-04-24T14:01:08.068Z,26.11
2018-04-24T14:03:38.899Z,27.30
2018-04-24T14:06:09.770Z,27.86
2018-04-24T14:08:40.563Z,28.19
2018-04-24T14:11:11.351Z,27.11
2018-04-24T14:13:42.140Z,26.71
2018-04-24T14:16:13.071Z,26.67
2018-04-24T14:18:43.823Z,26.38
2018-04-24T14:21:14.637Z,26.43
2018-04-24T14:23:45.441Z,25.72
2018-04-24T14:26:16.272Z,25.85
2018-04-24T14:28:47.074Z,25.46
2018-04-24T14:31:18.032Z,26.18
2018-04-24T14:33:48.899Z,25.66
2018-04-24T14:36:19.758Z,25.87
2018-04-24T14:38:50.611Z,26.51
2018-04-24T14:41:21.446Z,27.01
2018-04-24T14:43:52.254Z,27.38
2018-04-24T14:46:23.087Z,27.55
2018-04-24T14:48:53.923Z,26.89
2018-04-24T14:51:24.749Z,26.28
2018-04-24T14:53:55.596Z,25.66
2018-04-24T14:56:26.431Z,26.18
2018-04-24T14:58:57.287Z,26.45
2018-04-24T15:01:28.095Z,26.45
2018-04-24T15:03:58.857Z,25.82
2018-04-24T15:06:29.712Z,25.35
2018-04-24T15:09:00.491Z,25.65
2018-04-24T15:11:31.323Z,25.70
2018-04-24T15:14:02.228Z,25.74
2018-04-24T15:16:33.071Z,26.53
2018-04-24T15:19:03.916Z,26.44
2018-04-24T15:21:34.718Z,26.00
2018-04-24T15:24:05.483Z,26.32
2018-04-24T15:26:36.344Z,26.84
2018-04-24T15:29:07.183Z,27.20
2018-04-24T15:31:37.997Z,26.99
2018-04-24T15:34:08.845Z,27.96
2018-04-24T15:36:39.668Z,27.68
2018-04-24T15:39:10.459Z,27.75
2018-04-24T15:41:41.256Z,27.89
2018-04-24T15:44:12.038Z,27.48
2018-04-24T15:46:42.832Z,28.06
2018-04-24T15:49:13.616Z,27.33
2018-04-24T15:51:44.399Z,26.98
2018-04-24T15:54:15.211Z,27.79
2018-04-24T15:56:46.027Z,27.22
2018-04-24T15:59:16.939Z,26.89
2018-04-24T16:01:47.744Z,27.02
2018-04-24T16:04:18.519Z,25.86
2018-04-24T16:06:49.389Z,25.30
2018-04-24T16:09:20.165Z,24.97
2018-04-24T16:11:50.947Z,25.24
2018-04-24T16:14:21.732Z,24.92
2018-04-24T16:16:52.613Z,24.62
2018-04-24T16:19:23.403Z,24.20
2018-04-24T16:21:54.226Z,23.75
2018-04-24T16:24:25.013Z,23.59
2018-04-24T16:26:55.864Z,23.61
2018-04-24T16:29:26.635Z,23.73
2018-04-24T16:31:57.472Z,23.31
2018-04-24T16:34:28.273Z,23.26
2018-04-24T16:36:59.057Z,23.00
2018-04-24T16:39:29.923Z,22.68
2018-04-24T16:42:00.703Z,23.03
2018-04-24T16:44:31.491Z,23.28
2018-04-24T16:47:02.322Z,23.21
2018-04-24T16:49:33.169Z,23.18
2018-04-24T16:52:03.992Z,23.00
2018-04-24T16:54:34.781Z,22.76
2018-04-24T16:57:05.591Z,22.52
2018-04-24T16:59:36.360Z,22.24
2018-04-24T17:02:07.181Z,22.03
2018-04-24T17:04:37.962Z,21.76
2018-04-24T17:07:08.779Z,21.91
2018-04-24T17:09:39.544Z,21.73
2018-04-24T17:12:10.457Z,21.66
2018-04-24T17:14:41.287Z,21.47
2018-04-24T17:17:12.067Z,21.38
2018-04-24T17:19:42.845Z,21.31
2018-04-24T17:22:13.755Z,21.17
2018-04-24T17:24:44.568Z,21.04
2018-04-24T17:27:15.337Z,20.98
2018-04-24T17:29:46.115Z,20.80
2018-04-24T17:32:16.901Z,20.72
2018-04-24T17:34:47.675Z,20.65
2018-04-24T17:37:18.689Z,20.62
2018-04-24T17:39:49.591Z,20.57
2018-04-24T17:42:20.401Z,20.47
2018-04-24T17:44:51.174Z,20.29
2018-04-24T17:47:22.009Z,20.31
2018-04-24T17:49:52.862Z,20.15
2018-04-24T17:52:23.588Z,20.00
2018-04-24T17:54:54.439Z,19.84
2018-04-24T17:57:25.297Z,19.74
2018-04-24T17:59:56.090Z,19.64
2018-04-24T18:02:26.887Z,19.42
2018-04-24T18:04:57.651Z,19.24
2018-04-24T18:07:28.451Z,19.07
2018-04-24T18:09:59.227Z,18.84
2018-04-24T18:12:30.031Z,18.67
2018-04-24T18:15:00.811Z,18.57
2018-04-24T18:17:31.632Z,18.47
2018-04-24T18:20:02.439Z,18.33
2018-04-24T18:22:33.244Z,18.25
2018-04-24T18:25:04.076Z,18.08
2018-04-24T18:27:34.896Z,18.06
2018-04-24T18:30:05.688Z,17.99
2018-04-24T18:32:36.501Z,17.95
2018-04-24T18:35:07.267Z,17.84
2018-04-24T18:37:38.060Z,17.81
2018-04-24T18:40:08.903Z,17.71
2018-04-24T18:42:39.677Z,17.61
2018-04-24T18:45:10.440Z,17.53
2018-04-24T18:47:41.211Z,17.41
2018-04-24T18:50:12.825Z,17.33
2018-04-24T18:52:43.694Z,17.30
2018-04-24T18:55:14.599Z,17.02
2018-04-24T18:57:45.439Z,16.77
2018-04-24T19:00:16.227Z,16.58
2018-04-24T19:02:47.074Z,16.41
2018-04-24T19:05:19.908Z,16.31
2018-04-24T19:07:50.743Z,16.28
2018-04-24T19:10:21.559Z,16.22
2018-04-24T19:12:52.342Z,16.12
2018-04-24T19:15:23.091Z,15.98
2018-04-24T19:17:53.923Z,15.97
2018-04-24T19:20:24.751Z,15.94
2018-04-24T19:22:55.691Z,15.87
2018-04-24T19:25:33.627Z,15.80
2018-04-24T19:28:04.678Z,15.78
2018-04-24T19:30:35.485Z,15.69
2018-04-24T19:33:06.288Z,15.57
2018-04-24T19:35:37.112Z,15.51
2018-04-24T19:38:08.054Z,15.53
2018-04-24T19:40:45.060Z,15.39
2018-04-24T19:43:15.880Z,15.18
2018-04-24T19:45:46.641Z,15.07
2018-04-24T19:48:23.639Z,15.04
2018-04-24T19:50:54.436Z,15.19
2018-04-24T19:53:25.220Z,15.19
2018-04-24T19:55:55.993Z,15.27
2018-04-24T19:58:26.909Z,15.17
2018-04-24T20:00:57.814Z,15.09
2018-04-24T20:03:28.611Z,14.99
2018-04-24T20:05:59.404Z,14.90
2018-04-24T20:08:30.290Z,14.78
2018-04-24T20:11:01.139Z,14.67
2018-04-24T20:13:31.932Z,14.60
2018-04-24T20:16:02.709Z,14.48
2018-04-24T20:18:33.598Z,14.50
2018-04-24T20:21:04.397Z,14.63
2018-04-24T20:23:35.375Z,14.56
2018-04-24T20:26:06.132Z,14.43
2018-04-24T20:28:36.927Z,14.27
2018-04-24T20:31:07.756Z,14.17
2018-04-24T20:33:38.593Z,14.20
2018-04-24T20:36:09.362Z,14.13
2018-04-24T20:38:40.327Z,14.06
2018-04-24T20:41:11.108Z,14.06
2018-04-24T20:43:41.891Z,14.01
2018-04-24T20:46:12.657Z,13.98
2018-04-24T20:48:43.448Z,14.01
2018-04-24T20:51:14.329Z,14.02
2018-04-24T20:53:45.255Z,14.01
2018-04-24T20:56:16.064Z,13.92
2018-04-24T20:58:46.887Z,13.82
2018-04-24T21:01:17.669Z,13.81
2018-04-24T21:03:48.503Z,13.87
2018-04-24T21:06:19.317Z,13.89
2018-04-24T21:08:50.113Z,13.91
2018-04-24T21:11:20.891Z,13.86
2018-04-24T21:13:51.679Z,13.72
2018-04-24T21:16:22.463Z,13.58
2018-04-24T21:18:53.337Z,13.49
2018-04-24T21:21:24.148Z,13.41
2018-04-24T21:23:54.947Z,13.32
2018-04-24T21:26:25.834Z,13.14
2018-04-24T21:28:56.615Z,13.00
2018-04-24T21:31:27.395Z,12.84
2018-04-24T21:33:58.287Z,12.77
2018-04-24T21:36:29.074Z,12.63
2018-04-24T21:38:59.875Z,12.61
2018-04-24T21:41:30.663Z,12.56
2018-04-24T21:44:01.441Z,12.48
2018-04-24T21:46:34.434Z,12.57
2018-04-24T21:49:05.249Z,12.59
2018-04-24T21:51:36.063Z,12.52
2018-04-24T21:54:07.519Z,12.40
2018-04-24T21:56:38.307Z,12.39
2018-04-24T21:59:09.087Z,12.45
2018-04-24T22:01:39.949Z,12.54
2018-04-24T22:04:10.699Z,12.45
2018-04-24T22:06:41.467Z,12.39
2018-04-24T22:09:12.252Z,12.16
2018-04-24T22:11:43.034Z,12.29
2018-04-24T22:14:13.849Z,12.42
2018-04-24T22:16:44.624Z,12.56
2018-04-24T22:19:15.421Z,12.39
2018-04-24T22:21:46.224Z,12.25
2018-04-24T22:24:17.081Z,12.13
2018-04-24T22:26:47.887Z,12.18
2018-04-24T22:29:18.691Z,12.02
2018-04-24T22:31:49.465Z,11.84
2018-04-24T22:34:20.296Z,11.69
2018-04-24T22:36:51.079Z,11.78
2018-04-24T22:39:21.908Z,11.86
2018-04-24T22:41:52.696Z,11.77
2018-04-24T22:44:23.505Z,11.66
2018-04-24T22:46:54.305Z,11.59
2018-04-24T22:49:25.074Z,11.58
2018-04-24T22:51:55.839Z,11.48
2018-04-24T22:54:26.629Z,11.49
2018-04-24T22:56:57.419Z,11.41
2018-04-24T22:59:28.248Z,11.36
2018-04-24T23:01:59.016Z,11.50
2018-04-24T23:04:29.807Z,11.52
2018-04-24T23:07:00.647Z,11.44
2018-04-24T23:09:31.471Z,11.46
2018-04-24T23:12:14.536Z,11.48
2018-04-24T23:14:57.839Z,11.39
2018-04-24T23:17:41.051Z,11.25
2018-04-24T23:20:15.669Z,11.33
2018-04-24T23:22:46.464Z,11.36
2018-04-24T23:25:17.259Z,11.26
2018-04-24T23:27:48.042Z,11.22
2018-04-24T23:30:18.851Z,11.21
2018-04-24T23:32:49.616Z,11.20
2018-04-24T23:35:20.407Z,11.03
2018-04-24T23:37:51.220Z,11.03
2018-04-24T23:40:22.027Z,10.94
2018-04-24T23:42:52.800Z,10.97
2018-04-24T23:45:23.604Z,10.90
2018-04-24T23:47:54.387Z,10.92
2018-04-24T23:50:25.244Z,10.92
2018-04-24T23:52:56.040Z,10.99
2018-04-24T23:55:26.840Z,11.09
2018-04-24T23:57:57.611Z,11.09
